createdAt,value
2019-01-09T00:01:42.981Z,84.81
2019-01-09T00:04:15.699Z,84.50
2019-01-09T00:06:48.339Z,84.52
2019-01-09T00:09:20.970Z,84.82
2019-01-09T00:12:06.084Z,84.25
2019-01-09T00:14:38.773Z,84.72
2019-01-09T00:17:18.935Z,85.04
2019-01-09T00:19:51.516Z,84.10
2019-01-09T00:22:24.080Z,84.68
2019-01-09T00:24:56.664Z,84.88
2019-01-09T00:27:29.234Z,84.23
2019-01-09T00:30:01.923Z,84.11
2019-01-09T00:32:34.478Z,84.22
2019-01-09T00:35:07.783Z,84.19
2019-01-09T00:37:40.398Z,83.91
2019-01-09T00:40:13.425Z,83.96
2019-01-09T00:42:46.102Z,84.32
2019-01-09T00:45:59.908Z,84.34
2019-01-09T00:48:32.539Z,84.93
2019-01-09T00:51:08.717Z,84.87
2019-01-09T00:53:41.274Z,84.16
2019-01-09T00:56:13.846Z,84.33
2019-01-09T00:58:46.476Z,83.59
2019-01-09T01:01:19.141Z,83.89
2019-01-09T01:04:19.234Z,84.14
2019-01-09T01:07:53.139Z,84.06
2019-01-09T01:11:32.289Z,83.22
2019-01-09T01:14:51.541Z,83.68
2019-01-09T01:18:28.654Z,83.42
2019-01-09T01:21:13.160Z,83.94
2019-01-09T01:24:30.315Z,83.74
2019-01-09T01:27:40.375Z,82.87
2019-01-09T01:31:39.655Z,82.77
2019-01-09T01:35:06.032Z,82.31
2019-01-09T01:37:58.143Z,82.83
2019-01-09T01:41:36.322Z,83.03
2019-01-09T01:44:33.340Z,82.93
2019-01-09T01:48:04.746Z,82.88
2019-01-09T01:51:31.545Z,83.60
2019-01-09T01:55:17.109Z,83.41
2019-01-09T01:58:51.851Z,83.93
2019-01-09T02:02:10.165Z,84.41
2019-01-09T02:05:17.324Z,83.91
2019-01-09T02:08:50.701Z,83.82
2019-01-09T02:12:15.331Z,84.16
2019-01-09T02:15:37.723Z,83.45
2019-01-09T02:19:04.914Z,83.81
2019-01-09T02:22:23.917Z,83.87
2019-01-09T02:25:33.641Z,83.24
2019-01-09T02:28:44.966Z,83.75
2019-01-09T02:31:38.102Z,83.62
2019-01-09T02:34:10.777Z,84.10
2019-01-09T02:36:43.401Z,83.04
2019-01-09T02:39:15.978Z,83.51
2019-01-09T02:41:48.661Z,83.68
2019-01-09T02:44:21.292Z,83.05
2019-01-09T02:46:59.195Z,83.33
2019-01-09T02:49:31.451Z,83.33
2019-01-09T02:52:04.031Z,84.04
2019-01-09T02:54:36.660Z,83.62
2019-01-09T02:57:09.264Z,83.78
2019-01-09T02:59:41.939Z,83.50
2019-01-09T03:02:22.395Z,83.82
2019-01-09T03:04:54.988Z,83.34
2019-01-09T03:07:27.635Z,83.97
2019-01-09T03:10:02.513Z,83.87
2019-01-09T03:12:35.105Z,84.19
2019-01-09T03:15:08.629Z,83.73
2019-01-09T03:17:41.211Z,84.51
2019-01-09T03:20:13.825Z,84.32
2019-01-09T03:22:46.453Z,84.18
2019-01-09T03:25:19.014Z,83.55
2019-01-09T03:27:51.600Z,83.75
2019-01-09T03:30:24.201Z,83.56
2019-01-09T03:32:56.750Z,83.02
2019-01-09T03:35:29.377Z,83.34
2019-01-09T03:38:02.059Z,82.54
2019-01-09T03:57:21.897Z,83.58
2019-01-09T03:59:54.556Z,83.64
2019-01-09T04:02:29.229Z,83.10
2019-01-09T04:05:02.090Z,83.36
2019-01-09T04:07:34.648Z,83.71
2019-01-09T04:10:08.301Z,83.85
2019-01-09T04:12:40.838Z,83.53
2019-01-09T04:15:13.694Z,83.21
2019-01-09T04:17:47.496Z,83.33
2019-01-09T04:20:20.003Z,83.05
2019-01-09T04:22:52.623Z,84.00
2019-01-09T04:25:25.269Z,84.63
2019-01-09T04:27:57.978Z,84.51
2019-01-09T04:31:04.738Z,84.48
2019-01-09T04:33:37.285Z,84.63
2019-01-09T04:36:09.967Z,85.13
2019-01-09T04:38:42.506Z,85.59
2019-01-09T04:41:15.108Z,86.04
2019-01-09T04:43:47.695Z,86.69
2019-01-09T04:46:20.292Z,86.95
2019-01-09T04:48:53.167Z,87.28
2019-01-09T04:51:25.847Z,87.39
2019-01-09T04:54:09.853Z,87.92
2019-01-09T04:56:42.457Z,88.46
2019-01-09T04:59:15.027Z,88.58
2019-01-09T05:01:47.655Z,88.41
2019-01-09T05:04:20.321Z,88.03
2019-01-09T05:07:00.506Z,88.14
2019-01-09T05:09:27.184Z,87.21
2019-01-09T05:11:59.747Z,85.66
2019-01-09T05:14:32.459Z,85.47
2019-01-09T05:17:05.060Z,85.38
2019-01-09T05:19:38.278Z,84.81
2019-01-09T05:22:10.928Z,85.79
2019-01-09T05:24:45.533Z,86.89
2019-01-09T05:27:17.925Z,87.16
2019-01-09T05:29:50.478Z,87.89
2019-01-09T05:32:23.115Z,88.71
2019-01-09T05:34:55.933Z,89.26
2019-01-09T05:37:28.606Z,89.68
2019-01-09T05:40:02.460Z,89.44
2019-01-09T05:42:35.101Z,89.90
2019-01-09T05:45:08.303Z,90.27
2019-01-09T05:47:40.916Z,90.44
2019-01-09T05:50:21.731Z,90.86
2019-01-09T05:52:54.368Z,90.89
2019-01-09T05:55:27.205Z,91.16
2019-01-09T05:57:59.845Z,91.24
2019-01-09T06:00:32.485Z,91.31
2019-01-09T06:03:29.000Z,91.27
2019-01-09T06:06:01.638Z,91.17
2019-01-09T06:08:35.745Z,91.42
2019-01-09T06:11:08.621Z,91.40
2019-01-09T06:13:41.197Z,91.40
2019-01-09T06:16:15.032Z,91.38
2019-01-09T06:18:47.679Z,91.14
2019-01-09T06:21:20.314Z,91.01
2019-01-09T06:23:52.854Z,91.45
2019-01-09T06:26:25.491Z,91.25
2019-01-09T06:28:58.003Z,90.87
2019-01-09T06:31:30.685Z,90.42
2019-01-09T06:34:03.228Z,90.60
2019-01-09T06:36:35.941Z,90.35
2019-01-09T06:39:17.670Z,90.00
2019-01-09T06:41:50.284Z,89.37
2019-01-09T06:44:22.926Z,89.05
2019-01-09T06:46:55.583Z,88.80
2019-01-09T06:49:28.294Z,87.42
2019-01-09T06:52:00.886Z,87.09
2019-01-09T06:54:33.615Z,87.42
2019-01-09T07:00:11.380Z,87.01
2019-01-09T07:02:44.035Z,86.95
2019-01-09T07:05:19.229Z,86.77
2019-01-09T07:07:51.861Z,86.86
2019-01-09T07:10:42.977Z,86.92
2019-01-09T07:13:15.583Z,87.39
2019-01-09T07:15:48.260Z,87.37
2019-01-09T07:18:20.883Z,87.66
2019-01-09T07:20:53.546Z,87.71
2019-01-09T07:23:26.119Z,87.79
2019-01-09T07:25:58.875Z,87.88
2019-01-09T07:28:31.451Z,87.85
2019-01-09T07:31:05.586Z,88.24
2019-01-09T07:33:38.264Z,88.06
2019-01-09T07:36:14.831Z,88.37
2019-01-09T07:38:47.467Z,88.55
2019-01-09T07:41:20.024Z,88.78
2019-01-09T07:43:52.623Z,89.08
2019-01-09T07:46:25.219Z,89.49
2019-01-09T07:48:57.855Z,89.71
2019-01-09T07:51:32.493Z,89.76
2019-01-09T07:54:05.143Z,89.70
2019-01-09T07:56:37.699Z,89.75
2019-01-09T07:59:10.301Z,89.90
2019-01-09T08:01:42.868Z,90.34
2019-01-09T08:04:15.443Z,90.36
2019-01-09T08:06:48.022Z,90.36
2019-01-09T08:09:20.809Z,90.44
2019-01-09T08:11:53.414Z,90.44
2019-01-09T08:14:26.052Z,90.29
2019-01-09T08:16:58.842Z,90.38
2019-01-09T08:19:31.428Z,90.16
2019-01-09T08:22:05.447Z,90.22
2019-01-09T08:24:38.124Z,89.93
2019-01-09T08:27:10.816Z,89.63
2019-01-09T08:29:43.564Z,89.24
2019-01-09T08:32:16.239Z,88.59
2019-01-09T08:34:48.841Z,88.40
2019-01-09T08:37:21.488Z,88.96
2019-01-09T08:39:55.217Z,88.20
2019-01-09T08:42:27.863Z,87.54
2019-01-09T08:45:00.404Z,86.59
2019-01-09T08:47:32.963Z,85.94
2019-01-09T08:50:06.166Z,86.51
2019-01-09T08:52:38.726Z,86.65
2019-01-09T08:55:11.580Z,86.32
2019-01-09T08:57:44.306Z,85.69
2019-01-09T09:00:16.901Z,85.76
2019-01-09T09:02:49.928Z,84.64
2019-01-09T09:05:22.449Z,84.42
2019-01-09T09:08:11.562Z,84.70
2019-01-09T09:10:37.433Z,83.92
2019-01-09T09:13:11.251Z,83.93
2019-01-09T09:15:43.911Z,83.44
2019-01-09T09:18:16.536Z,82.88
2019-01-09T09:20:49.106Z,82.80
2019-01-09T09:23:21.669Z,82.75
2019-01-09T09:25:54.338Z,82.33
2019-01-09T09:28:26.896Z,81.78
2019-01-09T09:30:59.640Z,81.52
2019-01-09T09:33:32.321Z,82.92
2019-01-09T09:36:04.961Z,84.05
2019-01-09T09:38:37.537Z,83.98
2019-01-09T09:41:10.092Z,84.15
2019-01-09T09:43:42.614Z,84.40
2019-01-09T09:46:15.194Z,84.73
2019-01-09T09:48:47.787Z,85.25
2019-01-09T09:51:20.586Z,85.14
2019-01-09T09:53:53.195Z,85.05
2019-01-09T09:56:25.753Z,84.42
2019-01-09T09:58:58.379Z,85.02
2019-01-09T10:01:30.992Z,84.29
2019-01-09T10:04:03.634Z,83.67
2019-01-09T10:06:36.281Z,83.50
2019-01-09T10:09:11.577Z,82.28
2019-01-09T10:11:44.187Z,83.17
2019-01-09T10:14:16.843Z,84.01
2019-01-09T10:16:54.591Z,83.32
2019-01-09T10:19:27.219Z,82.52
2019-01-09T10:21:59.789Z,82.11
2019-01-09T10:24:32.399Z,80.55
2019-01-09T10:27:05.079Z,80.41
2019-01-09T10:29:37.689Z,79.42
2019-01-09T10:32:10.364Z,80.18
2019-01-09T10:34:43.008Z,80.53
2019-01-09T10:37:15.698Z,80.73
2019-01-09T10:39:48.562Z,80.63
2019-01-09T10:42:21.153Z,81.50
2019-01-09T10:44:53.772Z,81.67
2019-01-09T10:47:26.086Z,83.63
2019-01-09T10:49:58.666Z,83.76
2019-01-09T10:52:31.433Z,84.05
2019-01-09T10:55:04.270Z,84.55
2019-01-09T10:57:36.488Z,83.98
2019-01-09T11:00:14.898Z,84.16
2019-01-09T11:02:47.490Z,81.54
2019-01-09T11:05:20.349Z,80.97
2019-01-09T11:07:52.954Z,82.24
2019-01-09T11:10:25.658Z,83.34
2019-01-09T11:12:58.225Z,84.07
2019-01-09T11:15:30.937Z,85.06
2019-01-09T11:18:03.035Z,84.52
2019-01-09T11:20:35.709Z,81.59
2019-01-09T11:23:08.261Z,81.93
2019-01-09T11:25:40.820Z,80.08
2019-01-09T11:28:13.472Z,79.54
2019-01-09T11:30:46.347Z,74.93
2019-01-09T11:33:19.059Z,76.28
2019-01-09T11:35:51.635Z,74.13
2019-01-09T11:38:24.203Z,75.39
2019-01-09T11:40:56.813Z,74.59
2019-01-09T11:43:29.360Z,73.58
2019-01-09T11:46:02.002Z,74.44
2019-01-09T11:48:34.655Z,73.15
2019-01-09T11:51:07.376Z,75.35
2019-01-09T11:53:41.001Z,75.99
2019-01-09T11:56:13.641Z,73.68
2019-01-09T11:58:51.050Z,73.21
2019-01-09T12:01:23.648Z,72.74
2019-01-09T12:03:56.196Z,73.77
2019-01-09T12:06:28.758Z,72.85
2019-01-09T12:09:04.636Z,71.79
2019-01-09T12:11:35.695Z,69.45
2019-01-09T12:14:08.280Z,71.72
2019-01-09T12:16:40.940Z,73.40
2019-01-09T12:19:13.549Z,71.88
2019-01-09T12:21:46.239Z,72.42
2019-01-09T12:24:18.806Z,73.81
2019-01-09T12:26:51.456Z,72.34
2019-01-09T12:29:24.041Z,75.82
2019-01-09T12:31:56.629Z,75.89
2019-01-09T12:34:29.168Z,75.96
2019-01-09T12:37:01.795Z,74.67
2019-01-09T12:39:34.315Z,74.52
2019-01-09T12:42:06.953Z,73.78
2019-01-09T12:44:39.571Z,73.96
2019-01-09T12:47:12.179Z,75.18
2019-01-09T12:49:44.810Z,75.54
2019-01-09T12:52:17.428Z,77.65
2019-01-09T12:54:50.027Z,77.83
2019-01-09T12:57:22.658Z,77.46
2019-01-09T12:59:55.217Z,79.23
2019-01-09T13:02:28.662Z,79.67
2019-01-09T13:05:01.242Z,80.70
2019-01-09T13:07:33.767Z,82.98
2019-01-09T13:10:09.178Z,83.62
2019-01-09T13:12:41.793Z,84.43
2019-01-09T13:15:19.282Z,85.15
2019-01-09T13:17:51.871Z,86.06
2019-01-09T13:20:24.405Z,86.61
2019-01-09T13:22:57.032Z,87.34
2019-01-09T13:25:29.593Z,87.29
2019-01-09T13:28:02.245Z,86.53
2019-01-09T13:30:34.877Z,87.60
2019-01-09T13:33:07.336Z,87.66
2019-01-09T13:35:40.088Z,88.41
2019-01-09T13:38:12.713Z,88.32
2019-01-09T13:40:45.422Z,87.68
2019-01-09T13:43:18.037Z,88.05
2019-01-09T13:45:50.674Z,85.40
2019-01-09T13:48:23.285Z,84.33
2019-01-09T13:50:55.843Z,83.95
2019-01-09T13:53:28.441Z,83.30
2019-01-09T13:56:01.145Z,84.33
2019-01-09T13:58:33.711Z,81.18
2019-01-09T14:01:06.523Z,80.21
2019-01-09T14:03:39.216Z,80.16
2019-01-09T14:06:11.832Z,80.00
2019-01-09T14:08:44.364Z,78.42
2019-01-09T14:11:17.035Z,77.79
2019-01-09T14:13:49.696Z,77.90
2019-01-09T14:16:22.308Z,77.51
2019-01-09T14:18:55.449Z,76.11
2019-01-09T14:21:28.691Z,76.68
2019-01-09T14:24:01.398Z,76.60
2019-01-09T14:26:34.004Z,76.63
2019-01-09T14:29:06.785Z,77.80
2019-01-09T14:31:39.746Z,76.70
2019-01-09T14:34:12.307Z,75.77
2019-01-09T14:36:45.000Z,76.22
2019-01-09T14:39:17.729Z,75.08
2019-01-09T14:41:50.468Z,76.18
2019-01-09T14:44:23.187Z,76.84
2019-01-09T14:46:56.065Z,78.50
2019-01-09T14:49:28.649Z,77.94
2019-01-09T14:52:01.330Z,77.99
2019-01-09T14:54:34.029Z,78.20
2019-01-09T14:57:06.574Z,79.00
2019-01-09T14:59:39.133Z,78.11
2019-01-09T15:02:11.930Z,77.98
2019-01-09T15:04:44.503Z,78.44
2019-01-09T15:07:17.076Z,78.98
2019-01-09T15:09:56.632Z,79.69
2019-01-09T15:12:24.018Z,78.76
2019-01-09T15:15:07.877Z,78.79
2019-01-09T15:17:40.605Z,79.56
2019-01-09T15:20:16.693Z,81.02
2019-01-09T15:22:49.426Z,80.61
2019-01-09T15:25:22.098Z,80.77
2019-01-09T15:27:54.826Z,80.74
2019-01-09T15:30:32.507Z,80.59
2019-01-09T15:33:05.105Z,79.63
2019-01-09T15:35:37.737Z,80.75
2019-01-09T15:38:10.362Z,81.76
2019-01-09T15:40:42.907Z,82.23
2019-01-09T15:43:15.759Z,82.17
2019-01-09T15:45:48.421Z,82.05
2019-01-09T15:48:21.045Z,82.58
2019-01-09T15:50:53.744Z,82.22
2019-01-09T15:53:26.330Z,82.62
2019-01-09T15:55:58.912Z,81.56
2019-01-09T15:58:31.517Z,82.53
2019-01-09T16:01:04.094Z,82.47
2019-01-09T16:03:36.789Z,82.89
2019-01-09T16:06:09.618Z,83.97
2019-01-09T16:08:42.384Z,84.39
2019-01-09T16:11:15.195Z,85.25
2019-01-09T16:13:47.769Z,85.98
2019-01-09T16:16:20.598Z,85.83
2019-01-09T16:18:53.404Z,85.32
2019-01-09T16:21:26.044Z,85.85
2019-01-09T16:24:01.483Z,86.02
2019-01-09T16:26:34.146Z,85.78
2019-01-09T16:29:06.842Z,86.33
2019-01-09T16:31:41.687Z,86.76
2019-01-09T16:34:14.521Z,86.92
2019-01-09T16:36:47.121Z,87.30
2019-01-09T16:39:19.787Z,87.84
2019-01-09T16:41:52.446Z,89.05
2019-01-09T16:44:25.227Z,89.60
2019-01-09T16:46:57.869Z,89.95
2019-01-09T16:49:30.522Z,90.19
2019-01-09T16:52:03.116Z,90.13
2019-01-09T16:54:35.724Z,89.33
2019-01-09T16:57:08.338Z,88.96
2019-01-09T16:59:40.933Z,88.61
2019-01-09T17:02:13.745Z,87.62
2019-01-09T17:04:46.349Z,86.93
2019-01-09T17:07:18.952Z,85.94
2019-01-09T17:09:51.618Z,86.00
2019-01-09T17:12:24.864Z,86.06
2019-01-09T17:14:57.685Z,86.35
2019-01-09T17:17:30.468Z,86.92
2019-01-09T17:20:03.091Z,87.50
2019-01-09T17:22:36.152Z,87.53
2019-01-09T17:25:10.589Z,87.09
2019-01-09T17:27:43.260Z,87.37
2019-01-09T17:30:20.669Z,87.26
2019-01-09T17:32:55.098Z,87.89
2019-01-09T17:35:27.788Z,88.09
2019-01-09T17:38:00.500Z,87.80
2019-01-09T17:40:40.711Z,87.84
2019-01-09T17:43:08.211Z,87.86
2019-01-09T17:45:40.868Z,88.06
2019-01-09T17:48:13.625Z,88.15
2019-01-09T17:50:52.508Z,88.17
2019-01-09T17:53:25.135Z,87.77
2019-01-09T17:55:57.723Z,87.26
2019-01-09T17:58:30.399Z,87.58
2019-01-09T18:01:02.997Z,87.19
2019-01-09T18:03:35.641Z,87.69
2019-01-09T18:06:08.449Z,87.66
2019-01-09T18:08:41.438Z,87.65
2019-01-09T18:11:14.075Z,88.12
2019-01-09T18:13:46.622Z,87.56
2019-01-09T18:16:19.188Z,87.19
2019-01-09T18:18:52.338Z,86.77
2019-01-09T18:21:24.963Z,86.94
2019-01-09T18:23:57.604Z,87.45
2019-01-09T18:26:30.251Z,86.59
2019-01-09T18:29:02.882Z,86.14
2019-01-09T18:32:15.361Z,86.08
2019-01-09T18:35:23.893Z,85.44
2019-01-09T18:38:44.379Z,85.42
2019-01-09T18:42:12.699Z,85.81
2019-01-09T18:45:16.175Z,85.67
2019-01-09T18:48:32.636Z,84.61
2019-01-09T18:52:08.332Z,85.00
2019-01-09T18:54:40.986Z,84.71
2019-01-09T18:57:13.527Z,84.51
2019-01-09T18:59:47.589Z,84.69
2019-01-09T19:02:20.155Z,84.43
2019-01-09T19:04:53.186Z,83.84
2019-01-09T19:07:25.805Z,83.49
2019-01-09T19:09:58.467Z,84.13
2019-01-09T19:12:31.036Z,83.84
2019-01-09T19:15:04.725Z,84.16
2019-01-09T19:17:36.959Z,84.69
2019-01-09T19:20:09.946Z,83.43
2019-01-09T19:22:42.541Z,84.92
2019-01-09T19:25:16.809Z,84.63
2019-01-09T19:27:49.433Z,83.73
2019-01-09T19:30:30.365Z,84.07
2019-01-09T19:33:03.305Z,84.93
2019-01-09T19:35:35.984Z,85.28
2019-01-09T19:38:08.642Z,83.49
2019-01-09T19:40:41.483Z,83.68
2019-01-09T19:43:14.178Z,83.84
2019-01-09T19:45:46.906Z,83.58
2019-01-09T19:48:19.618Z,84.08
2019-01-09T19:50:54.383Z,83.34
2019-01-09T19:53:27.037Z,83.78
2019-01-09T19:56:01.159Z,84.07
2019-01-09T19:58:34.327Z,84.08
2019-01-09T20:01:06.965Z,84.41
2019-01-09T20:03:39.627Z,84.84
2019-01-09T20:06:12.377Z,85.22
2019-01-09T20:08:45.029Z,84.60
2019-01-09T20:11:26.311Z,84.17
2019-01-09T20:13:52.508Z,84.78
2019-01-09T20:16:26.308Z,85.51
2019-01-09T20:18:59.100Z,85.67
2019-01-09T20:21:31.771Z,85.01
2019-01-09T20:24:04.538Z,85.49
2019-01-09T20:26:37.491Z,85.04
2019-01-09T20:29:10.091Z,85.45
2019-01-09T20:31:42.862Z,85.83
2019-01-09T20:34:15.655Z,85.25
2019-01-09T20:36:47.451Z,85.47
2019-01-09T20:39:20.071Z,85.90
2019-01-09T20:41:52.824Z,84.83
2019-01-09T20:44:25.581Z,86.30
2019-01-09T20:46:58.332Z,86.22
2019-01-09T20:49:31.101Z,86.09
2019-01-09T20:52:05.475Z,85.15
2019-01-09T20:54:38.095Z,85.69
2019-01-09T20:57:11.360Z,85.11
2019-01-09T20:59:44.098Z,84.49
2019-01-09T21:02:16.854Z,84.37
2019-01-09T21:04:49.536Z,83.87
2019-01-09T21:07:22.177Z,84.58
2019-01-09T21:09:54.801Z,84.87
2019-01-09T21:12:27.422Z,85.21
2019-01-09T21:15:00.224Z,84.63
2019-01-09T21:17:32.963Z,85.80
2019-01-09T21:20:07.924Z,84.82
2019-01-09T21:22:40.617Z,84.89
2019-01-09T21:25:13.701Z,85.53
2019-01-09T21:27:49.066Z,85.82
2019-01-09T21:30:23.943Z,85.67
2019-01-09T21:32:56.598Z,85.49
2019-01-09T21:35:33.589Z,86.07
2019-01-09T21:38:06.289Z,86.75
2019-01-09T21:40:38.930Z,87.39
2019-01-09T21:43:11.534Z,87.27
2019-01-09T21:45:44.096Z,86.22
2019-01-09T21:48:16.722Z,86.20
2019-01-09T21:50:49.253Z,86.25
2019-01-09T21:53:21.859Z,86.47
2019-01-09T21:55:54.400Z,86.89
2019-01-09T21:58:27.056Z,86.84
2019-01-09T22:00:59.942Z,86.97
2019-01-09T22:03:32.660Z,87.24
2019-01-09T22:06:05.762Z,87.53
2019-01-09T22:08:38.384Z,86.64
2019-01-09T22:11:10.993Z,86.82
2019-01-09T22:13:43.798Z,87.09
2019-01-09T22:16:16.743Z,87.24
2019-01-09T22:18:49.390Z,87.79
2019-01-09T22:21:22.114Z,88.16
2019-01-09T22:23:54.833Z,88.20
2019-01-09T22:26:27.611Z,88.33
2019-01-09T22:29:00.254Z,87.94
2019-01-09T22:31:32.941Z,88.03
2019-01-09T22:34:05.708Z,87.38
2019-01-09T22:36:38.290Z,86.53
2019-01-09T22:39:11.528Z,86.82
2019-01-09T22:41:44.145Z,87.43
2019-01-09T22:44:16.868Z,87.08
2019-01-09T22:46:49.726Z,87.21
2019-01-09T22:49:22.374Z,86.91
2019-01-09T22:51:54.971Z,87.23
2019-01-09T22:54:36.069Z,86.87
2019-01-09T22:57:01.333Z,87.05
2019-01-09T22:59:34.085Z,86.49
2019-01-09T23:02:08.344Z,86.49
2019-01-09T23:04:40.921Z,86.44
2019-01-09T23:07:13.762Z,86.37
2019-01-09T23:09:46.451Z,85.96
2019-01-09T23:12:21.368Z,86.35
2019-01-09T23:14:53.300Z,87.05
2019-01-09T23:17:25.859Z,87.02
2019-01-09T23:19:58.497Z,86.87
2019-01-09T23:22:31.065Z,86.21
2019-01-09T23:25:03.690Z,86.31
2019-01-09T23:27:36.513Z,86.30
2019-01-09T23:30:12.113Z,86.28
2019-01-09T23:32:44.271Z,86.50
2019-01-09T23:35:17.036Z,86.60
2019-01-09T23:37:49.587Z,86.46
2019-01-09T23:40:22.165Z,85.89
2019-01-09T23:42:54.750Z,85.52
2019-01-09T23:45:27.336Z,86.52
2019-01-09T23:47:59.928Z,85.80
2019-01-09T23:50:32.572Z,85.73
2019-01-09T23:53:05.116Z,86.14
2019-01-09T23:55:37.749Z,86.13
2019-01-09T23:58:10.383Z,86.48
